sensor_id;sensor_type;location;lat;lon;timestamp;temperature;humidity
21518;DHT22;61765;45.794;24.150;2022-12-01T00:01:41;8.10;84.30
21518;DHT22;61765;45.794;24.150;2022-12-01T00:09:46;7.70;85.40
21518;DHT22;61765;45.794;24.150;2022-12-01T00:18:09;7.60;87.20
21518;DHT22;61765;45.794;24.150;2022-12-01T00:26:16;8.30;85.80
21518;DHT22;61765;45.794;24.150;2022-12-01T00:34:24;8.60;83.90
21518;DHT22;61765;45.794;24.150;2022-12-01T00:42:30;8.80;83.20
21518;DHT22;61765;45.794;24.150;2022-12-01T00:50:38;8.70;83.20
21518;DHT22;61765;45.794;24.150;2022-12-01T00:58:44;8.70;83.10
21518;DHT22;61765;45.794;24.150;2022-12-01T01:06:52;8.60;83.00
21518;DHT22;61765;45.794;24.150;2022-12-01T01:14:58;8.50;83.30
21518;DHT22;61765;45.794;24.150;2022-12-01T01:23:06;8.60;83.10
21518;DHT22;61765;45.794;24.150;2022-12-01T01:31:14;8.60;83.40
21518;DHT22;61765;45.794;24.150;2022-12-01T01:39:23;8.60;83.70
21518;DHT22;61765;45.794;24.150;2022-12-01T01:47:32;8.60;83.50
21518;DHT22;61765;45.794;24.150;2022-12-01T01:55:41;8.70;83.70
21518;DHT22;61765;45.794;24.150;2022-12-01T02:03:50;8.80;83.20
21518;DHT22;61765;45.794;24.150;2022-12-01T02:12:12;8.70;82.80
21518;DHT22;61765;45.794;24.150;2022-12-01T02:20:41;8.80;83.30
21518;DHT22;61765;45.794;24.150;2022-12-01T02:29:08;8.70;83.00
21518;DHT22;61765;45.794;24.150;2022-12-01T02:37:23;8.70;83.20
21518;DHT22;61765;45.794;24.150;2022-12-01T02:45:38;8.80;83.20
21518;DHT22;61765;45.794;24.150;2022-12-01T02:53:49;8.80;83.20
21518;DHT22;61765;45.794;24.150;2022-12-01T03:02:04;8.50;83.60
21518;DHT22;61765;45.794;24.150;2022-12-01T03:10:21;8.60;84.10
21518;DHT22;61765;45.794;24.150;2022-12-01T03:18:34;8.50;84.30
21518;DHT22;61765;45.794;24.150;2022-12-01T03:26:47;8.50;84.20
21518;DHT22;61765;45.794;24.150;2022-12-01T03:34:56;8.50;85.10
21518;DHT22;61765;45.794;24.150;2022-12-01T03:43:07;8.70;83.80
21518;DHT22;61765;45.794;24.150;2022-12-01T03:51:17;8.80;83.20
21518;DHT22;61765;45.794;24.150;2022-12-01T03:59:28;8.90;83.00
21518;DHT22;61765;45.794;24.150;2022-12-01T04:07:37;8.90;82.90
21518;DHT22;61765;45.794;24.150;2022-12-01T04:15:45;8.80;82.80
21518;DHT22;61765;45.794;24.150;2022-12-01T04:23:51;8.80;83.00
21518;DHT22;61765;45.794;24.150;2022-12-01T04:32:08;8.80;82.80
21518;DHT22;61765;45.794;24.150;2022-12-01T04:40:14;8.70;82.80
21518;DHT22;61765;45.794;24.150;2022-12-01T04:48:22;8.80;83.10
21518;DHT22;61765;45.794;24.150;2022-12-01T04:56:28;8.90;82.90
21518;DHT22;61765;45.794;24.150;2022-12-01T05:04:36;8.80;82.90
21518;DHT22;61765;45.794;24.150;2022-12-01T05:12:43;8.70;83.20
21518;DHT22;61765;45.794;24.150;2022-12-01T05:20:51;8.60;83.30
21518;DHT22;61765;45.794;24.150;2022-12-01T05:29:03;8.70;83.30
21518;DHT22;61765;45.794;24.150;2022-12-01T05:37:11;8.70;83.50
21518;DHT22;61765;45.794;24.150;2022-12-01T05:45:17;8.60;83.40
21518;DHT22;61765;45.794;24.150;2022-12-01T05:53:25;8.60;83.40
21518;DHT22;61765;45.794;24.150;2022-12-01T06:01:30;8.70;83.60
21518;DHT22;61765;45.794;24.150;2022-12-01T06:09:38;8.70;83.40
21518;DHT22;61765;45.794;24.150;2022-12-01T06:17:43;8.60;83.80
21518;DHT22;61765;45.794;24.150;2022-12-01T06:25:52;8.70;83.90
21518;DHT22;61765;45.794;24.150;2022-12-01T06:33:57;8.90;83.30
21518;DHT22;61765;45.794;24.150;2022-12-01T06:42:05;9.10;82.90
21518;DHT22;61765;45.794;24.150;2022-12-01T06:50:11;9.20;82.60
21518;DHT22;61765;45.794;24.150;2022-12-01T06:58:19;9.50;82.10
21518;DHT22;61765;45.794;24.150;2022-12-01T07:06:25;9.70;81.60
21518;DHT22;61765;45.794;24.150;2022-12-01T07:14:36;9.70;81.50
21518;DHT22;61765;45.794;24.150;2022-12-01T07:22:43;9.90;81.50
21518;DHT22;61765;45.794;24.150;2022-12-01T07:30:51;9.90;81.00
21518;DHT22;61765;45.794;24.150;2022-12-01T07:38:57;10.00;80.70
21518;DHT22;61765;45.794;24.150;2022-12-01T07:47:05;10.10;80.70
21518;DHT22;61765;45.794;24.150;2022-12-01T07:55:10;10.00;81.20
21518;DHT22;61765;45.794;24.150;2022-12-01T08:03:18;10.00;80.30
21518;DHT22;61765;45.794;24.150;2022-12-01T08:11:26;10.20;80.20
21518;DHT22;61765;45.794;24.150;2022-12-01T08:19:35;10.20;79.80
21518;DHT22;61765;45.794;24.150;2022-12-01T08:27:40;10.50;79.30
21518;DHT22;61765;45.794;24.150;2022-12-01T08:35:48;10.70;78.40
21518;DHT22;61765;45.794;24.150;2022-12-01T08:43:54;10.60;78.00
21518;DHT22;61765;45.794;24.150;2022-12-01T08:52:07;10.80;78.60
21518;DHT22;61765;45.794;24.150;2022-12-01T09:00:13;10.80;78.30
21518;DHT22;61765;45.794;24.150;2022-12-01T09:08:22;10.70;79.00
21518;DHT22;61765;45.794;24.150;2022-12-01T09:16:37;10.90;78.50
21518;DHT22;61765;45.794;24.150;2022-12-01T09:24:46;10.80;79.00
21518;DHT22;61765;45.794;24.150;2022-12-01T09:32:51;10.60;77.90
21518;DHT22;61765;45.794;24.150;2022-12-01T09:41:03;10.80;78.70
21518;DHT22;61765;45.794;24.150;2022-12-01T09:49:14;11.20;78.00
21518;DHT22;61765;45.794;24.150;2022-12-01T09:57:28;11.50;77.10
21518;DHT22;61765;45.794;24.150;2022-12-01T10:05:37;13.10;75.60
21518;DHT22;61765;45.794;24.150;2022-12-01T10:14:13;14.00;73.40
21518;DHT22;61765;45.794;24.150;2022-12-01T10:22:48;14.40;72.00
21518;DHT22;61765;45.794;24.150;2022-12-01T10:31:10;14.30;71.20
21518;DHT22;61765;45.794;24.150;2022-12-01T10:39:22;14.10;71.50
21518;DHT22;61765;45.794;24.150;2022-12-01T10:47:32;13.70;70.90
21518;DHT22;61765;45.794;24.150;2022-12-01T10:55:38;13.60;72.10
21518;DHT22;61765;45.794;24.150;2022-12-01T11:03:54;13.40;72.10
21518;DHT22;61765;45.794;24.150;2022-12-01T11:12:01;13.20;72.80
21518;DHT22;61765;45.794;24.150;2022-12-01T11:20:38;12.90;73.20
21518;DHT22;61765;45.794;24.150;2022-12-01T11:28:52;12.70;74.10
21518;DHT22;61765;45.794;24.150;2022-12-01T11:37:02;12.40;75.30
21518;DHT22;61765;45.794;24.150;2022-12-01T11:45:23;12.40;75.40
21518;DHT22;61765;45.794;24.150;2022-12-01T11:53:34;12.10;76.10
21518;DHT22;61765;45.794;24.150;2022-12-01T12:10:32;12.10;76.30
21518;DHT22;61765;45.794;24.150;2022-12-01T12:18:55;11.90;76.40
21518;DHT22;61765;45.794;24.150;2022-12-01T12:27:13;11.90;77.20
21518;DHT22;61765;45.794;24.150;2022-12-01T12:35:31;11.80;77.80
21518;DHT22;61765;45.794;24.150;2022-12-01T12:43:52;11.70;78.30
21518;DHT22;61765;45.794;24.150;2022-12-01T12:52:03;11.70;78.30
21518;DHT22;61765;45.794;24.150;2022-12-01T13:00:17;12.10;78.30
21518;DHT22;61765;45.794;24.150;2022-12-01T13:08:25;11.90;78.20
21518;DHT22;61765;45.794;24.150;2022-12-01T13:16:38;11.30;79.20
21518;DHT22;61765;45.794;24.150;2022-12-01T13:24:50;11.30;79.80
21518;DHT22;61765;45.794;24.150;2022-12-01T13:33:03;11.10;80.30
21518;DHT22;61765;45.794;24.150;2022-12-01T13:41:20;11.30;80.00
21518;DHT22;61765;45.794;24.150;2022-12-01T13:49:42;11.40;79.80
21518;DHT22;61765;45.794;24.150;2022-12-01T13:58:39;11.30;80.00
21518;DHT22;61765;45.794;24.150;2022-12-01T14:07:14;11.30;80.00
21518;DHT22;61765;45.794;24.150;2022-12-01T14:15:27;11.20;80.80
21518;DHT22;61765;45.794;24.150;2022-12-01T14:23:37;11.30;80.20
21518;DHT22;61765;45.794;24.150;2022-12-01T14:40:31;11.10;81.30
21518;DHT22;61765;45.794;24.150;2022-12-01T14:48:39;11.10;81.80
21518;DHT22;61765;45.794;24.150;2022-12-01T14:56:51;11.40;81.20
21518;DHT22;61765;45.794;24.150;2022-12-01T15:05:09;11.20;81.80
21518;DHT22;61765;45.794;24.150;2022-12-01T15:13:23;11.20;81.60
21518;DHT22;61765;45.794;24.150;2022-12-01T15:21:31;11.30;81.40
21518;DHT22;61765;45.794;24.150;2022-12-01T15:29:43;11.30;82.00
21518;DHT22;61765;45.794;24.150;2022-12-01T15:37:50;11.30;82.10
21518;DHT22;61765;45.794;24.150;2022-12-01T15:46:01;11.20;82.60
21518;DHT22;61765;45.794;24.150;2022-12-01T15:54:19;11.20;82.40
21518;DHT22;61765;45.794;24.150;2022-12-01T16:02:30;11.10;83.10
21518;DHT22;61765;45.794;24.150;2022-12-01T16:10:36;11.10;83.40
21518;DHT22;61765;45.794;24.150;2022-12-01T16:18:51;11.00;83.90
21518;DHT22;61765;45.794;24.150;2022-12-01T16:27:00;11.00;84.10
21518;DHT22;61765;45.794;24.150;2022-12-01T16:35:24;11.20;84.20
21518;DHT22;61765;45.794;24.150;2022-12-01T16:43:31;11.30;84.00
21518;DHT22;61765;45.794;24.150;2022-12-01T16:51:40;11.30;83.20
21518;DHT22;61765;45.794;24.150;2022-12-01T17:00:08;11.50;83.00
21518;DHT22;61765;45.794;24.150;2022-12-01T17:08:17;11.50;83.30
21518;DHT22;61765;45.794;24.150;2022-12-01T17:16:23;11.50;83.30
21518;DHT22;61765;45.794;24.150;2022-12-01T17:24:31;11.60;83.00
21518;DHT22;61765;45.794;24.150;2022-12-01T17:32:37;11.60;82.90
21518;DHT22;61765;45.794;24.150;2022-12-01T17:40:45;11.60;82.90
21518;DHT22;61765;45.794;24.150;2022-12-01T17:48:53;11.70;82.90
21518;DHT22;61765;45.794;24.150;2022-12-01T17:57:02;11.70;82.90
21518;DHT22;61765;45.794;24.150;2022-12-01T18:05:10;11.60;82.70
21518;DHT22;61765;45.794;24.150;2022-12-01T18:13:20;11.40;83.40
21518;DHT22;61765;45.794;24.150;2022-12-01T18:21:26;11.30;84.20
21518;DHT22;61765;45.794;24.150;2022-12-01T18:29:34;11.50;83.70
21518;DHT22;61765;45.794;24.150;2022-12-01T18:37:41;11.50;84.00
21518;DHT22;61765;45.794;24.150;2022-12-01T18:45:49;11.20;84.90
21518;DHT22;61765;45.794;24.150;2022-12-01T18:53:56;10.90;86.00
21518;DHT22;61765;45.794;24.150;2022-12-01T19:02:06;11.00;86.20
21518;DHT22;61765;45.794;24.150;2022-12-01T19:10:11;11.00;86.40
21518;DHT22;61765;45.794;24.150;2022-12-01T19:18:26;10.90;87.00
21518;DHT22;61765;45.794;24.150;2022-12-01T19:26:33;10.90;87.50
21518;DHT22;61765;45.794;24.150;2022-12-01T19:34:42;11.00;87.40
21518;DHT22;61765;45.794;24.150;2022-12-01T19:42:47;10.90;87.20
21518;DHT22;61765;45.794;24.150;2022-12-01T19:50:58;10.90;87.60
21518;DHT22;61765;45.794;24.150;2022-12-01T19:59:06;10.90;87.00
21518;DHT22;61765;45.794;24.150;2022-12-01T20:07:15;11.00;86.90
21518;DHT22;61765;45.794;24.150;2022-12-01T20:15:21;11.30;86.20
21518;DHT22;61765;45.794;24.150;2022-12-01T20:23:29;11.30;86.30
21518;DHT22;61765;45.794;24.150;2022-12-01T20:31:35;11.30;86.00
21518;DHT22;61765;45.794;24.150;2022-12-01T20:39:43;11.40;85.50
21518;DHT22;61765;45.794;24.150;2022-12-01T20:47:49;11.40;86.00
21518;DHT22;61765;45.794;24.150;2022-12-01T20:56:01;10.60;88.30
21518;DHT22;61765;45.794;24.150;2022-12-01T21:04:06;10.80;88.60
21518;DHT22;61765;45.794;24.150;2022-12-01T21:12:15;11.00;88.30
21518;DHT22;61765;45.794;24.150;2022-12-01T21:20:37;10.80;88.50
21518;DHT22;61765;45.794;24.150;2022-12-01T21:28:48;11.00;88.20
21518;DHT22;61765;45.794;24.150;2022-12-01T21:36:55;11.20;87.60
21518;DHT22;61765;45.794;24.150;2022-12-01T21:45:15;11.30;86.90
21518;DHT22;61765;45.794;24.150;2022-12-01T21:53:26;11.40;86.60
21518;DHT22;61765;45.794;24.150;2022-12-01T22:01:35;11.40;86.30
21518;DHT22;61765;45.794;24.150;2022-12-01T22:09:42;11.40;86.40
21518;DHT22;61765;45.794;24.150;2022-12-01T22:17:50;11.50;86.20
21518;DHT22;61765;45.794;24.150;2022-12-01T22:25:57;11.50;85.80
21518;DHT22;61765;45.794;24.150;2022-12-01T22:34:11;11.40;86.10
21518;DHT22;61765;45.794;24.150;2022-12-01T22:42:20;11.50;86.10
21518;DHT22;61765;45.794;24.150;2022-12-01T22:50:31;11.40;85.80
21518;DHT22;61765;45.794;24.150;2022-12-01T22:58:40;11.40;86.20
21518;DHT22;61765;45.794;24.150;2022-12-01T23:07:02;11.30;86.50
21518;DHT22;61765;45.794;24.150;2022-12-01T23:15:19;11.30;86.90
21518;DHT22;61765;45.794;24.150;2022-12-01T23:23:29;11.30;86.60
21518;DHT22;61765;45.794;24.150;2022-12-01T23:31:35;11.20;86.50
21518;DHT22;61765;45.794;24.150;2022-12-01T23:39:43;11.20;86.30
21518;DHT22;61765;45.794;24.150;2022-12-01T23:47:49;11.10;86.00
21518;DHT22;61765;45.794;24.150;2022-12-01T23:56:02;11.20;86.00
